Calder, Canada
Current Conditions -  °F | °C
As of 10:00 AM on Sunday 21 Dec 2014 (Local Time) from CYQV Reporting Station
Moderate Fog Moderate Fog  
Wind Chill: 17°   Ceiling: 200
Heat Index: 27°   Visibility: 0.25mi
Dew Point: 27°   Wind: 9mph
Humidity: 100%   Direction: 150°SSE
Pressure: 29.49"   Gusts: NA
Location:  51.15°N, 101.75°W
Report Text: CYQV 211600Z AUTO 15008KT 1/4SM FZFG VV002 M03/M03 A2949 RMK ICG SLP013
Loading
Personal Weather Stations






























Interactive Weather Map New forecast layout! Learn more

10-Day Weather Forecast

Advertisements
Track Severe Weather on mobile